sensor_id;sensor_type;location;lat;lon;timestamp;pressure;altitude;pressure_sealevel;temperature;humidity
56400;BME280;42298;53.638;9.876;2023-09-18T00:00:50;100920.19;;;20.62;65.55
56400;BME280;42298;53.638;9.876;2023-09-18T00:03:20;100914.16;;;20.60;65.52
56400;BME280;42298;53.638;9.876;2023-09-18T00:05:47;100920.19;;;20.62;65.52
56400;BME280;42298;53.638;9.876;2023-09-18T00:08:15;100910.22;;;20.56;65.62
56400;BME280;42298;53.638;9.876;2023-09-18T00:10:42;100907.16;;;20.53;65.54
56400;BME280;42298;53.638;9.876;2023-09-18T00:13:08;100913.59;;;20.52;65.84
56400;BME280;42298;53.638;9.876;2023-09-18T00:15:33;100900.94;;;20.45;65.73
56400;BME280;42298;53.638;9.876;2023-09-18T00:17:59;100898.47;;;20.44;65.89
56400;BME280;42298;53.638;9.876;2023-09-18T00:20:24;100895.59;;;20.39;66.16
56400;BME280;42298;53.638;9.876;2023-09-18T00:22:54;100899.50;;;20.43;66.35
56400;BME280;42298;53.638;9.876;2023-09-18T00:25:20;100892.88;;;20.39;66.27
56400;BME280;42298;53.638;9.876;2023-09-18T00:27:45;100875.91;;;20.32;66.25
56400;BME280;42298;53.638;9.876;2023-09-18T00:30:10;100876.34;;;20.29;66.45
56400;BME280;42298;53.638;9.876;2023-09-18T00:32:36;100867.44;;;20.28;66.44
56400;BME280;42298;53.638;9.876;2023-09-18T00:35:02;100850.88;;;20.18;66.39
56400;BME280;42298;53.638;9.876;2023-09-18T00:37:28;100864.78;;;20.21;66.35
56400;BME280;42298;53.638;9.876;2023-09-18T00:39:54;100852.75;;;20.17;66.43
56400;BME280;42298;53.638;9.876;2023-09-18T00:42:19;100852.13;;;20.15;66.58
56400;BME280;42298;53.638;9.876;2023-09-18T00:44:46;100853.56;;;20.18;66.55
56400;BME280;42298;53.638;9.876;2023-09-18T00:47:12;100852.34;;;20.14;66.56
56400;BME280;42298;53.638;9.876;2023-09-18T00:49:40;100838.84;;;20.14;66.41
56400;BME280;42298;53.638;9.876;2023-09-18T00:52:07;100852.97;;;20.16;66.57
56400;BME280;42298;53.638;9.876;2023-09-18T00:54:34;100850.25;;;20.16;66.48
56400;BME280;42298;53.638;9.876;2023-09-18T00:57:01;100846.13;;;20.13;66.35
56400;BME280;42298;53.638;9.876;2023-09-18T00:59:26;100839.91;;;20.13;66.29
56400;BME280;42298;53.638;9.876;2023-09-18T01:01:52;100845.66;;;20.16;66.33
56400;BME280;42298;53.638;9.876;2023-09-18T01:04:17;100836.94;;;20.14;66.59
56400;BME280;42298;53.638;9.876;2023-09-18T01:06:43;100833.63;;;20.12;66.41
56400;BME280;42298;53.638;9.876;2023-09-18T01:09:08;100843.03;;;20.10;66.30
56400;BME280;42298;53.638;9.876;2023-09-18T01:14:44;100846.13;;;20.13;66.49
56400;BME280;42298;53.638;9.876;2023-09-18T01:17:13;100839.94;;;20.06;66.58
56400;BME280;42298;53.638;9.876;2023-09-18T01:19:45;100831.84;;;20.06;66.38
56400;BME280;42298;53.638;9.876;2023-09-18T01:22:13;100829.56;;;20.03;66.46
56400;BME280;42298;53.638;9.876;2023-09-18T01:24:39;100817.53;;;19.99;66.61
56400;BME280;42298;53.638;9.876;2023-09-18T01:27:08;100817.31;;;20.00;66.76
56400;BME280;42298;53.638;9.876;2023-09-18T01:29:34;100804.47;;;19.96;66.86
56400;BME280;42298;53.638;9.876;2023-09-18T01:31:59;100797.44;;;19.95;66.64
56400;BME280;42298;53.638;9.876;2023-09-18T01:34:40;100790.19;;;19.89;66.94
56400;BME280;42298;53.638;9.876;2023-09-18T01:37:07;100788.97;;;19.84;66.94
56400;BME280;42298;53.638;9.876;2023-09-18T01:39:34;100789.41;;;19.81;66.92
56400;BME280;42298;53.638;9.876;2023-09-18T01:42:03;100780.72;;;19.79;67.29
56400;BME280;42298;53.638;9.876;2023-09-18T01:44:30;100768.09;;;19.73;67.04
56400;BME280;42298;53.638;9.876;2023-09-18T01:46:58;100762.69;;;19.73;67.17
56400;BME280;42298;53.638;9.876;2023-09-18T01:49:28;100763.31;;;19.69;67.30
56400;BME280;42298;53.638;9.876;2023-09-18T01:51:55;100762.06;;;19.71;67.42
56400;BME280;42298;53.638;9.876;2023-09-18T01:54:20;100764.72;;;19.78;67.38
56400;BME280;42298;53.638;9.876;2023-09-18T01:56:45;100752.47;;;19.75;67.15
56400;BME280;42298;53.638;9.876;2023-09-18T01:59:11;100749.53;;;19.77;66.90
56400;BME280;42298;53.638;9.876;2023-09-18T02:01:36;100744.78;;;19.72;67.31
56400;BME280;42298;53.638;9.876;2023-09-18T02:04:03;100745.25;;;19.69;67.30
56400;BME280;42298;53.638;9.876;2023-09-18T02:06:29;100745.25;;;19.69;67.19
56400;BME280;42298;53.638;9.876;2023-09-18T02:08:54;100745.66;;;19.66;67.37
56400;BME280;42298;53.638;9.876;2023-09-18T02:11:20;100722.66;;;19.57;67.39
56400;BME280;42298;53.638;9.876;2023-09-18T02:13:46;100727.63;;;19.60;67.21
56400;BME280;42298;53.638;9.876;2023-09-18T02:16:11;100721.00;;;19.56;67.35
56400;BME280;42298;53.638;9.876;2023-09-18T02:18:36;100717.25;;;19.57;67.38
56400;BME280;42298;53.638;9.876;2023-09-18T02:21:02;100712.75;;;19.51;67.75
56400;BME280;42298;53.638;9.876;2023-09-18T02:23:28;100722.66;;;19.57;67.47
56400;BME280;42298;53.638;9.876;2023-09-18T02:26:01;100713.31;;;19.59;67.40
56400;BME280;42298;53.638;9.876;2023-09-18T02:28:26;100718.91;;;19.58;67.48
56400;BME280;42298;53.638;9.876;2023-09-18T02:30:51;100716.81;;;19.60;67.20
56400;BME280;42298;53.638;9.876;2023-09-18T02:33:17;100718.25;;;19.62;67.55
56400;BME280;42298;53.638;9.876;2023-09-18T02:35:42;100707.66;;;19.61;67.22
56400;BME280;42298;53.638;9.876;2023-09-18T02:38:08;100714.72;;;19.62;67.01
56400;BME280;42298;53.638;9.876;2023-09-18T02:40:34;100704.13;;;19.60;67.33
56400;BME280;42298;53.638;9.876;2023-09-18T02:42:59;100700.84;;;19.58;66.99
56400;BME280;42298;53.638;9.876;2023-09-18T02:45:25;100700.06;;;19.51;67.47
56400;BME280;42298;53.638;9.876;2023-09-18T02:47:50;100693.25;;;19.49;67.47
56400;BME280;42298;53.638;9.876;2023-09-18T02:50:15;100683.03;;;19.51;67.22
56400;BME280;42298;53.638;9.876;2023-09-18T02:52:41;100682.03;;;19.45;67.80
56400;BME280;42298;53.638;9.876;2023-09-18T02:55:07;100685.13;;;19.49;67.51
56400;BME280;42298;53.638;9.876;2023-09-18T02:57:34;100668.75;;;19.43;67.55
56400;BME280;42298;53.638;9.876;2023-09-18T03:00:00;100662.53;;;19.43;67.53
56400;BME280;42298;53.638;9.876;2023-09-18T03:02:25;100672.50;;;19.42;67.60
56400;BME280;42298;53.638;9.876;2023-09-18T03:04:50;100676.25;;;19.41;67.55
56400;BME280;42298;53.638;9.876;2023-09-18T03:07:16;100674.59;;;19.40;67.66
56400;BME280;42298;53.638;9.876;2023-09-18T03:09:41;100688.25;;;19.46;67.53
56400;BME280;42298;53.638;9.876;2023-09-18T03:12:07;100700.72;;;19.47;67.64
56400;BME280;42298;53.638;9.876;2023-09-18T03:14:32;100698.91;;;19.40;67.43
56400;BME280;42298;53.638;9.876;2023-09-18T03:16:57;100692.91;;;19.38;67.94
56400;BME280;42298;53.638;9.876;2023-09-18T03:19:26;100687.09;;;19.35;67.48
56400;BME280;42298;53.638;9.876;2023-09-18T03:21:52;100682.53;;;19.35;67.62
56400;BME280;42298;53.638;9.876;2023-09-18T03:24:17;100677.56;;;19.32;67.75
56400;BME280;42298;53.638;9.876;2023-09-18T03:26:42;100671.13;;;19.33;67.84
56400;BME280;42298;53.638;9.876;2023-09-18T03:29:07;100654.13;;;19.33;67.78
56400;BME280;42298;53.638;9.876;2023-09-18T03:31:33;100659.94;;;19.30;68.01
56400;BME280;42298;53.638;9.876;2023-09-18T03:33:58;100650.84;;;19.24;67.89
56400;BME280;42298;53.638;9.876;2023-09-18T03:36:23;100641.50;;;19.27;68.14
56400;BME280;42298;53.638;9.876;2023-09-18T03:38:49;100636.91;;;19.27;68.22
56400;BME280;42298;53.638;9.876;2023-09-18T03:41:14;100641.03;;;19.30;68.22
56400;BME280;42298;53.638;9.876;2023-09-18T03:43:40;100634.00;;;19.29;67.94
56400;BME280;42298;53.638;9.876;2023-09-18T03:46:06;100628.19;;;19.25;68.11
56400;BME280;42298;53.638;9.876;2023-09-18T03:48:35;100619.94;;;19.20;68.29
56400;BME280;42298;53.638;9.876;2023-09-18T03:51:04;100614.97;;;19.17;68.33
56400;BME280;42298;53.638;9.876;2023-09-18T03:53:31;100612.47;;;19.22;68.35
56400;BME280;42298;53.638;9.876;2023-09-18T03:55:56;100603.75;;;19.20;68.22
56400;BME280;42298;53.638;9.876;2023-09-18T03:58:22;100596.94;;;19.17;68.23
56400;BME280;42298;53.638;9.876;2023-09-18T04:00:47;100600.38;;;19.25;68.12
56400;BME280;42298;53.638;9.876;2023-09-18T04:03:14;100597.91;;;19.23;68.13
56400;BME280;42298;53.638;9.876;2023-09-18T04:05:39;100587.75;;;19.18;68.09
56400;BME280;42298;53.638;9.876;2023-09-18T04:08:05;100587.75;;;19.18;68.03
56400;BME280;42298;53.638;9.876;2023-09-18T04:10:30;100591.28;;;19.19;68.43
56400;BME280;42298;53.638;9.876;2023-09-18T04:12:55;100580.72;;;19.17;68.47
56400;BME280;42298;53.638;9.876;2023-09-18T04:15:21;100591.28;;;19.19;68.10
56400;BME280;42298;53.638;9.876;2023-09-18T04:17:47;100586.28;;;19.22;68.18
56400;BME280;42298;53.638;9.876;2023-09-18T04:20:13;100576.84;;;19.32;67.79
56400;BME280;42298;53.638;9.876;2023-09-18T04:22:43;100574.00;;;19.27;67.90
56400;BME280;42298;53.638;9.876;2023-09-18T04:25:10;100572.78;;;19.22;67.97
56400;BME280;42298;53.638;9.876;2023-09-18T04:27:35;100566.56;;;19.22;67.98
56400;BME280;42298;53.638;9.876;2023-09-18T04:30:01;100559.72;;;19.19;68.07
56400;BME280;42298;53.638;9.876;2023-09-18T04:32:29;100554.16;;;19.14;68.11
56400;BME280;42298;53.638;9.876;2023-09-18T04:34:55;100551.03;;;19.17;68.37
56400;BME280;42298;53.638;9.876;2023-09-18T04:37:20;100539.69;;;19.09;68.08
56400;BME280;42298;53.638;9.876;2023-09-18T04:39:45;100538.63;;;19.10;68.56
56400;BME280;42298;53.638;9.876;2023-09-18T04:42:11;100544.19;;;19.15;68.32
56400;BME280;42298;53.638;9.876;2023-09-18T04:44:36;100534.91;;;19.11;68.32
56400;BME280;42298;53.638;9.876;2023-09-18T04:47:01;100518.16;;;19.02;68.46
56400;BME280;42298;53.638;9.876;2023-09-18T04:49:27;100522.09;;;18.99;68.57
56400;BME280;42298;53.638;9.876;2023-09-18T04:51:53;100517.56;;;19.00;68.62
56400;BME280;42298;53.638;9.876;2023-09-18T04:54:18;100520.00;;;19.01;68.65
56400;BME280;42298;53.638;9.876;2023-09-18T04:56:44;100511.75;;;18.96;68.50
56400;BME280;42298;53.638;9.876;2023-09-18T04:59:10;100503.47;;;18.98;68.61
56400;BME280;42298;53.638;9.876;2023-09-18T05:01:35;100484.56;;;18.98;68.45
56400;BME280;42298;53.638;9.876;2023-09-18T05:04:01;100488.47;;;19.02;68.61
56400;BME280;42298;53.638;9.876;2023-09-18T05:06:26;100478.50;;;19.02;68.63
56400;BME280;42298;53.638;9.876;2023-09-18T05:08:51;100476.84;;;19.01;68.47
56400;BME280;42298;53.638;9.876;2023-09-18T05:11:18;100479.78;;;19.00;68.48
56400;BME280;42298;53.638;9.876;2023-09-18T05:13:43;100461.16;;;18.92;68.67
56400;BME280;42298;53.638;9.876;2023-09-18T05:16:09;100458.69;;;18.90;68.60
56400;BME280;42298;53.638;9.876;2023-09-18T05:18:34;100447.53;;;18.87;68.88
56400;BME280;42298;53.638;9.876;2023-09-18T05:21:00;100439.94;;;18.70;69.25
56400;BME280;42298;53.638;9.876;2023-09-18T05:23:26;100443.47;;;18.77;69.13
56400;BME280;42298;53.638;9.876;2023-09-18T05:25:51;100435.75;;;18.81;68.96
56400;BME280;42298;53.638;9.876;2023-09-18T05:28:16;100429.66;;;18.86;68.89
56400;BME280;42298;53.638;9.876;2023-09-18T05:30:42;100425.09;;;18.86;69.01
56400;BME280;42298;53.638;9.876;2023-09-18T05:33:07;100427.56;;;18.88;68.98
56400;BME280;42298;53.638;9.876;2023-09-18T05:35:44;100426.97;;;18.86;68.80
56400;BME280;42298;53.638;9.876;2023-09-18T05:38:11;100427.38;;;18.89;68.83
56400;BME280;42298;53.638;9.876;2023-09-18T05:40:39;100427.56;;;18.88;68.98
56400;BME280;42298;53.638;9.876;2023-09-18T05:43:04;100428.19;;;18.90;68.79
56400;BME280;42298;53.638;9.876;2023-09-18T05:45:30;100427.38;;;18.89;68.97
56400;BME280;42298;53.638;9.876;2023-09-18T05:47:56;100425.94;;;18.87;68.98
56400;BME280;42298;53.638;9.876;2023-09-18T05:50:32;100416.44;;;18.84;69.11
56400;BME280;42298;53.638;9.876;2023-09-18T05:52:59;100419.28;;;18.89;69.21
56400;BME280;42298;53.638;9.876;2023-09-18T05:55:26;100410.44;;;18.82;69.13
56400;BME280;42298;53.638;9.876;2023-09-18T05:57:52;100417.59;;;18.88;69.04
56400;BME280;42298;53.638;9.876;2023-09-18T06:00:17;100402.25;;;18.89;69.19
56400;BME280;42298;53.638;9.876;2023-09-18T06:02:43;100399.78;;;18.87;69.15
56400;BME280;42298;53.638;9.876;2023-09-18T06:05:10;100385.09;;;18.83;69.02
56400;BME280;42298;53.638;9.876;2023-09-18T06:07:41;100390.41;;;18.90;69.13
56400;BME280;42298;53.638;9.876;2023-09-18T06:10:07;100394.84;;;19.02;69.02
56400;BME280;42298;53.638;9.876;2023-09-18T06:12:32;100396.78;;;19.14;68.89
56400;BME280;42298;53.638;9.876;2023-09-18T06:14:57;100381.19;;;19.16;68.64
56400;BME280;42298;53.638;9.876;2023-09-18T06:17:23;100375.50;;;19.24;68.22
56400;BME280;42298;53.638;9.876;2023-09-18T06:19:49;100381.03;;;19.29;68.43
56400;BME280;42298;53.638;9.876;2023-09-18T06:22:14;100386.34;;;19.36;68.38
56400;BME280;42298;53.638;9.876;2023-09-18T06:24:40;100376.66;;;19.47;67.97
56400;BME280;42298;53.638;9.876;2023-09-18T06:27:05;100383.53;;;19.61;67.46
56400;BME280;42298;53.638;9.876;2023-09-18T06:29:34;100376.09;;;19.56;67.40
56400;BME280;42298;53.638;9.876;2023-09-18T06:32:00;100377.09;;;19.62;67.36
56400;BME280;42298;53.638;9.876;2023-09-18T06:34:26;100368.44;;;19.72;67.26
56400;BME280;42298;53.638;9.876;2023-09-18T06:36:51;100359.06;;;19.74;67.39
56400;BME280;42298;53.638;9.876;2023-09-18T06:39:16;100358.47;;;19.72;67.34
56400;BME280;42298;53.638;9.876;2023-09-18T06:41:42;100356.41;;;19.86;67.11
56400;BME280;42298;53.638;9.876;2023-09-18T06:44:07;100356.16;;;19.88;67.02
56400;BME280;42298;53.638;9.876;2023-09-18T06:46:33;100358.63;;;19.89;67.18
56400;BME280;42298;53.638;9.876;2023-09-18T06:48:58;100360.63;;;19.94;66.85
56400;BME280;42298;53.638;9.876;2023-09-18T06:51:26;100341.03;;;19.98;66.78
56400;BME280;42298;53.638;9.876;2023-09-18T06:53:53;100334.91;;;20.03;66.95
56400;BME280;42298;53.638;9.876;2023-09-18T06:56:18;100330.69;;;20.07;66.91
56400;BME280;42298;53.638;9.876;2023-09-18T06:58:44;100316.09;;;19.96;67.03
56400;BME280;42298;53.638;9.876;2023-09-18T07:01:09;100322.38;;;20.09;66.89
56400;BME280;42298;53.638;9.876;2023-09-18T07:03:35;100321.31;;;20.21;66.64
56400;BME280;42298;53.638;9.876;2023-09-18T07:06:02;100311.66;;;20.25;66.43
56400;BME280;42298;53.638;9.876;2023-09-18T07:08:27;100302.50;;;20.26;66.58
56400;BME280;42298;53.638;9.876;2023-09-18T07:10:53;100292.03;;;20.30;66.13
56400;BME280;42298;53.638;9.876;2023-09-18T07:13:18;100291.78;;;20.32;66.22
56400;BME280;42298;53.638;9.876;2023-09-18T07:15:43;100289.19;;;20.37;66.13
56400;BME280;42298;53.638;9.876;2023-09-18T07:18:10;100290.84;;;20.50;66.22
56400;BME280;42298;53.638;9.876;2023-09-18T07:20:43;100281.69;;;20.51;65.92
56400;BME280;42298;53.638;9.876;2023-09-18T07:23:08;100272.41;;;20.58;66.01
56400;BME280;42298;53.638;9.876;2023-09-18T07:25:34;100273.56;;;20.62;65.64
56400;BME280;42298;53.638;9.876;2023-09-18T07:27:59;100266.25;;;20.75;65.96
56400;BME280;42298;53.638;9.876;2023-09-18T07:30:25;100270.97;;;20.79;65.41
56400;BME280;42298;53.638;9.876;2023-09-18T07:32:55;100275.75;;;20.89;65.17
56400;BME280;42298;53.638;9.876;2023-09-18T07:35:23;100280.41;;;21.05;65.07
56400;BME280;42298;53.638;9.876;2023-09-18T07:37:49;100280.00;;;21.14;64.76
56400;BME280;42298;53.638;9.876;2023-09-18T07:40:14;100290.47;;;21.22;64.55
56400;BME280;42298;53.638;9.876;2023-09-18T07:42:41;100266.91;;;21.22;64.26
56400;BME280;42298;53.638;9.876;2023-09-18T07:45:08;100268.66;;;21.28;64.04
56400;BME280;42298;53.638;9.876;2023-09-18T07:47:34;100273.09;;;21.35;63.90
56400;BME280;42298;53.638;9.876;2023-09-18T07:49:59;100268.84;;;21.39;63.45
56400;BME280;42298;53.638;9.876;2023-09-18T07:52:24;100257.53;;;21.42;63.52
56400;BME280;42298;53.638;9.876;2023-09-18T07:54:50;100259.06;;;21.38;63.51
56400;BME280;42298;53.638;9.876;2023-09-18T07:57:15;100247.53;;;21.42;63.67
56400;BME280;42298;53.638;9.876;2023-09-18T07:59:41;100248.81;;;21.40;63.15
56400;BME280;42298;53.638;9.876;2023-09-18T08:02:07;100245.91;;;21.41;63.24
56400;BME280;42298;53.638;9.876;2023-09-18T08:04:34;100237.84;;;21.46;63.36
56400;BME280;42298;53.638;9.876;2023-09-18T08:06:59;100235.41;;;21.62;63.21
56400;BME280;42298;53.638;9.876;2023-09-18T08:09:25;100236.38;;;21.56;63.46
56400;BME280;42298;53.638;9.876;2023-09-18T08:11:51;100244.69;;;21.66;63.07
56400;BME280;42298;53.638;9.876;2023-09-18T08:14:20;100237.38;;;21.66;63.29
56400;BME280;42298;53.638;9.876;2023-09-18T08:16:45;100241.16;;;21.65;62.88
56400;BME280;42298;53.638;9.876;2023-09-18T08:19:15;100254.53;;;21.72;63.18
56400;BME280;42298;53.638;9.876;2023-09-18T08:21:41;100282.69;;;21.71;62.65
56400;BME280;42298;53.638;9.876;2023-09-18T08:24:07;100279.00;;;21.77;62.79
56400;BME280;42298;53.638;9.876;2023-09-18T08:26:32;100283.34;;;21.78;62.59
56400;BME280;42298;53.638;9.876;2023-09-18T08:28:57;100285.81;;;21.80;62.90
56400;BME280;42298;53.638;9.876;2023-09-18T08:31:23;100269.56;;;21.80;62.50
56400;BME280;42298;53.638;9.876;2023-09-18T08:33:49;100273.00;;;21.75;62.46
56400;BME280;42298;53.638;9.876;2023-09-18T08:36:16;100277.28;;;21.71;62.51
56400;BME280;42298;53.638;9.876;2023-09-18T08:38:41;100284.00;;;21.68;62.73
56400;BME280;42298;53.638;9.876;2023-09-18T08:41:09;100284.59;;;21.70;62.77
56400;BME280;42298;53.638;9.876;2023-09-18T08:43:35;100293.06;;;21.74;63.11
56400;BME280;42298;53.638;9.876;2023-09-18T08:46:02;100292.22;;;21.74;62.98
56400;BME280;42298;53.638;9.876;2023-09-18T08:48:29;100293.28;;;21.73;63.22
56400;BME280;42298;53.638;9.876;2023-09-18T08:51:04;100304.38;;;21.71;63.12
56400;BME280;42298;53.638;9.876;2023-09-18T08:53:30;100287.31;;;21.70;63.59
56400;BME280;42298;53.638;9.876;2023-09-18T08:55:56;100279.75;;;21.73;63.45
56400;BME280;42298;53.638;9.876;2023-09-18T08:58:25;100269.50;;;21.75;63.27
56400;BME280;42298;53.638;9.876;2023-09-18T09:00:51;100278.78;;;21.79;63.40
56400;BME280;42298;53.638;9.876;2023-09-18T09:03:17;100279.25;;;21.76;63.48
56400;BME280;42298;53.638;9.876;2023-09-18T09:05:43;100264.47;;;21.83;63.65
56400;BME280;42298;53.638;9.876;2023-09-18T09:08:08;100255.59;;;21.88;63.64
56400;BME280;42298;53.638;9.876;2023-09-18T09:10:33;100257.56;;;21.93;63.62
56400;BME280;42298;53.638;9.876;2023-09-18T09:12:59;100254.94;;;21.98;63.54
56400;BME280;42298;53.638;9.876;2023-09-18T09:15:34;100261.50;;;22.02;63.56
56400;BME280;42298;53.638;9.876;2023-09-18T09:18:08;100271.59;;;22.06;63.74
56400;BME280;42298;53.638;9.876;2023-09-18T09:20:36;100272.50;;;22.12;63.52
56400;BME280;42298;53.638;9.876;2023-09-18T09:23:03;100251.22;;;22.21;63.80
56400;BME280;42298;53.638;9.876;2023-09-18T09:25:30;100247.66;;;22.37;63.75
56400;BME280;42298;53.638;9.876;2023-09-18T09:28:01;100248.75;;;22.58;63.35
56400;BME280;42298;53.638;9.876;2023-09-18T09:30:28;100245.97;;;22.75;63.33
56400;BME280;42298;53.638;9.876;2023-09-18T09:32:55;100250.22;;;22.88;62.97
56400;BME280;42298;53.638;9.876;2023-09-18T09:35:26;100248.25;;;23.05;62.51
56400;BME280;42298;53.638;9.876;2023-09-18T09:37:53;100243.75;;;23.16;62.26
56400;BME280;42298;53.638;9.876;2023-09-18T09:40:21;100260.66;;;23.23;61.83
56400;BME280;42298;53.638;9.876;2023-09-18T09:42:47;100247.94;;;23.29;62.50
56400;BME280;42298;53.638;9.876;2023-09-18T09:45:14;100238.28;;;23.38;61.67
56400;BME280;42298;53.638;9.876;2023-09-18T09:47:43;100244.59;;;23.49;62.18
56400;BME280;42298;53.638;9.876;2023-09-18T09:50:11;100247.63;;;23.52;61.14
56400;BME280;42298;53.638;9.876;2023-09-18T09:52:45;100229.16;;;23.54;61.33
56400;BME280;42298;53.638;9.876;2023-09-18T09:55:31;100221.59;;;23.62;60.96
56400;BME280;42298;53.638;9.876;2023-09-18T09:58:00;100233.28;;;23.62;60.80
56400;BME280;42298;53.638;9.876;2023-09-18T10:00:32;100216.72;;;23.64;61.64
56400;BME280;42298;53.638;9.876;2023-09-18T10:03:04;100203.16;;;23.69;61.24
56400;BME280;42298;53.638;9.876;2023-09-18T10:05:32;100199.94;;;23.72;60.93
56400;BME280;42298;53.638;9.876;2023-09-18T10:08:06;100199.63;;;23.68;60.74
56400;BME280;42298;53.638;9.876;2023-09-18T10:10:35;100209.16;;;23.71;61.08
56400;BME280;42298;53.638;9.876;2023-09-18T10:13:16;100217.59;;;23.69;61.28
56400;BME280;42298;53.638;9.876;2023-09-18T10:15:43;100224.97;;;23.74;60.64
56400;BME280;42298;53.638;9.876;2023-09-18T10:18:18;100226.31;;;23.71;60.85
56400;BME280;42298;53.638;9.876;2023-09-18T10:20:51;100238.06;;;23.77;61.08
56400;BME280;42298;53.638;9.876;2023-09-18T10:23:32;100236.34;;;23.71;60.94
56400;BME280;42298;53.638;9.876;2023-09-18T10:26:00;100247.53;;;23.74;60.81
56400;BME280;42298;53.638;9.876;2023-09-18T10:28:29;100236.66;;;23.74;60.43
56400;BME280;42298;53.638;9.876;2023-09-18T10:31:02;100240.72;;;23.72;60.66
56400;BME280;42298;53.638;9.876;2023-09-18T10:33:32;100227.13;;;23.72;60.41
56400;BME280;42298;53.638;9.876;2023-09-18T10:35:58;100230.41;;;23.74;60.65
56400;BME280;42298;53.638;9.876;2023-09-18T10:38:29;100236.22;;;23.83;60.72
56400;BME280;42298;53.638;9.876;2023-09-18T10:40:57;100232.72;;;23.87;60.63
56400;BME280;42298;53.638;9.876;2023-09-18T10:43:23;100231.34;;;23.85;60.55
56400;BME280;42298;53.638;9.876;2023-09-18T10:45:49;100223.47;;;23.88;60.60
56400;BME280;42298;53.638;9.876;2023-09-18T10:48:18;100231.16;;;23.96;60.65
56400;BME280;42298;53.638;9.876;2023-09-18T10:50:44;100229.53;;;23.95;60.59
56400;BME280;42298;53.638;9.876;2023-09-18T10:53:11;100250.16;;;23.91;60.19
56400;BME280;42298;53.638;9.876;2023-09-18T10:55:36;100242.88;;;24.02;60.25
56400;BME280;42298;53.638;9.876;2023-09-18T10:58:03;100233.72;;;24.13;60.86
56400;BME280;42298;53.638;9.876;2023-09-18T11:00:31;100246.78;;;24.22;60.02
56400;BME280;42298;53.638;9.876;2023-09-18T11:03:14;100238.59;;;24.16;59.69
56400;BME280;42298;53.638;9.876;2023-09-18T11:05:44;100237.50;;;24.12;59.91
56400;BME280;42298;53.638;9.876;2023-09-18T11:08:30;100249.25;;;24.18;60.57
56400;BME280;42298;53.638;9.876;2023-09-18T11:11:09;100235.69;;;24.28;60.26
56400;BME280;42298;53.638;9.876;2023-09-18T11:13:51;100226.72;;;24.33;59.38
56400;BME280;42298;53.638;9.876;2023-09-18T11:19:16;100233.28;;;24.37;59.54
56400;BME280;42298;53.638;9.876;2023-09-18T11:21:43;100242.81;;;24.40;59.96
56400;BME280;42298;53.638;9.876;2023-09-18T11:24:16;100247.69;;;24.37;59.77
56400;BME280;42298;53.638;9.876;2023-09-18T11:26:44;100249.34;;;24.33;59.50
56400;BME280;42298;53.638;9.876;2023-09-18T11:29:13;100254.72;;;24.28;59.24
56400;BME280;42298;53.638;9.876;2023-09-18T11:34:20;100247.66;;;24.27;60.26
56400;BME280;42298;53.638;9.876;2023-09-18T11:36:45;100264.22;;;24.26;60.14
56400;BME280;42298;53.638;9.876;2023-09-18T11:39:12;100252.53;;;24.20;60.16
56400;BME280;42298;53.638;9.876;2023-09-18T11:41:38;100253.59;;;24.24;60.13
56400;BME280;42298;53.638;9.876;2023-09-18T11:46:38;100256.84;;;24.16;60.43
56400;BME280;42298;53.638;9.876;2023-09-18T11:49:07;100253.84;;;24.17;60.73
56400;BME280;42298;53.638;9.876;2023-09-18T11:51:34;100241.91;;;24.24;60.31
56400;BME280;42298;53.638;9.876;2023-09-18T11:54:00;100241.63;;;24.20;60.09
56400;BME280;42298;53.638;9.876;2023-09-18T11:56:26;100247.88;;;24.21;60.54
56400;BME280;42298;53.638;9.876;2023-09-18T11:58:52;100262.88;;;24.23;60.60
56400;BME280;42298;53.638;9.876;2023-09-18T12:01:18;100271.34;;;24.27;60.41
56400;BME280;42298;53.638;9.876;2023-09-18T12:03:44;100270.53;;;24.31;60.12
56400;BME280;42298;53.638;9.876;2023-09-18T12:06:10;100274.88;;;24.27;60.48
56400;BME280;42298;53.638;9.876;2023-09-18T12:08:39;100276.78;;;24.27;60.06
56400;BME280;42298;53.638;9.876;2023-09-18T12:11:06;100265.03;;;24.21;59.92
56400;BME280;42298;53.638;9.876;2023-09-18T12:13:32;100262.53;;;24.14;60.51
56400;BME280;42298;53.638;9.876;2023-09-18T12:16:02;100258.75;;;24.15;60.30
56400;BME280;42298;53.638;9.876;2023-09-18T12:18:30;100251.97;;;24.18;60.68
56400;BME280;42298;53.638;9.876;2023-09-18T12:20:56;100253.88;;;24.23;60.49
56400;BME280;42298;53.638;9.876;2023-09-18T12:23:24;100260.69;;;24.25;60.29
56400;BME280;42298;53.638;9.876;2023-09-18T12:25:56;100269.16;;;24.29;60.53
56400;BME280;42298;53.638;9.876;2023-09-18T12:28:24;100267.53;;;24.33;60.09
56400;BME280;42298;53.638;9.876;2023-09-18T12:30:52;100261.28;;;24.32;59.70
56400;BME280;42298;53.638;9.876;2023-09-18T12:33:21;100259.69;;;24.42;60.07
56400;BME280;42298;53.638;9.876;2023-09-18T12:35:46;100260.31;;;24.49;59.66
56400;BME280;42298;53.638;9.876;2023-09-18T12:38:16;100247.81;;;24.53;59.54
56400;BME280;42298;53.638;9.876;2023-09-18T12:40:43;100249.16;;;24.50;59.45
56400;BME280;42298;53.638;9.876;2023-09-18T12:43:11;100232.56;;;24.52;59.33
56400;BME280;42298;53.638;9.876;2023-09-18T12:45:36;100232.56;;;24.57;59.41
56400;BME280;42298;53.638;9.876;2023-09-18T12:48:02;100230.41;;;24.59;59.46
56400;BME280;42298;53.638;9.876;2023-09-18T12:50:29;100223.06;;;24.60;59.31
56400;BME280;42298;53.638;9.876;2023-09-18T12:53:12;100226.06;;;24.58;58.74
56400;BME280;42298;53.638;9.876;2023-09-18T12:55:38;100247.84;;;24.58;59.14
56400;BME280;42298;53.638;9.876;2023-09-18T12:58:05;100238.34;;;24.66;59.31
56400;BME280;42298;53.638;9.876;2023-09-18T13:00:33;100248.16;;;24.72;58.49